Crystal Springs, Nevada
Current Conditions -  °F | °C
As of 1:58 PM on Wednesday 22 Oct 2014 (Local Time) from KINS Reporting Station
Clear Clear  
Wind Chill: 79°   Ceiling: Unl
Heat Index: 79°   Visibility: 10mi
Dew Point: 19°   Wind: 3mph
Humidity: 11%   Direction: 10°N
Pressure: 30.04"   Gusts: NA
Location:  37.7776°N, 115.121°W
Report Text: KINS 222058Z AUTO 01003KT 10SM CLR 26/M07 A3004 RMK AO2 SLP136 T02591072 57016
Loading
Personal Weather Stations






























Interactive Weather Map
Tropical Storm Tracking
New forecast layout! Learn more

10-Day Weather Forecast

Advertisements
Track Severe Weather on mobile